createdAt,value
2022-12-19T00:00:02.497Z,4.00
2022-12-19T00:02:39.334Z,4.00
2022-12-19T00:05:07.111Z,4.00
2022-12-19T00:07:34.020Z,4.00
2022-12-19T00:10:01.064Z,6.00
2022-12-19T00:12:28.025Z,4.10
2022-12-19T00:14:54.886Z,4.00
2022-12-19T00:17:23.455Z,4.90
2022-12-19T00:19:50.283Z,4.10
2022-12-19T00:22:20.326Z,4.10
2022-12-19T00:24:48.429Z,4.10
2022-12-19T00:27:15.301Z,4.10
2022-12-19T00:29:42.170Z,4.10
2022-12-19T00:32:09.210Z,4.60
2022-12-19T00:34:39.396Z,4.20
2022-12-19T00:37:06.221Z,4.20
2022-12-19T00:39:33.124Z,4.70
2022-12-19T00:41:59.951Z,4.30
2022-12-19T00:44:26.833Z,4.30
2022-12-19T00:46:53.656Z,4.30
2022-12-19T00:49:21.262Z,4.40
2022-12-19T00:51:48.202Z,4.40
2022-12-19T00:54:15.492Z,4.40
2022-12-19T00:56:42.651Z,4.40
2022-12-19T00:59:10.615Z,4.50
2022-12-19T01:01:41.823Z,4.50
2022-12-19T01:04:30.836Z,4.50
2022-12-19T01:07:02.481Z,4.60
2022-12-19T01:09:34.363Z,4.60
2022-12-19T01:12:24.720Z,4.60
2022-12-19T01:15:03.961Z,4.70
2022-12-19T01:17:34.694Z,4.70
2022-12-19T01:20:21.207Z,4.70
2022-12-19T01:22:59.991Z,4.70
2022-12-19T01:25:27.574Z,4.70
2022-12-19T01:27:55.725Z,4.80
2022-12-19T01:30:22.732Z,4.80
2022-12-19T01:32:49.945Z,4.80
2022-12-19T01:35:21.595Z,5.80
2022-12-19T01:38:02.277Z,5.80
2022-12-19T01:40:36.419Z,4.80
2022-12-19T01:43:05.723Z,4.90
2022-12-19T01:45:43.564Z,4.90
2022-12-19T01:48:44.061Z,4.90
2022-12-19T01:51:19.961Z,4.90
2022-12-19T01:53:53.030Z,5.00
2022-12-19T01:56:28.041Z,5.00
2022-12-19T01:59:05.844Z,5.00
2022-12-19T02:01:44.606Z,5.00
2022-12-19T02:04:30.257Z,7.10
2022-12-19T02:07:15.778Z,5.00
2022-12-19T02:09:50.325Z,6.70
2022-12-19T02:12:36.631Z,5.10
2022-12-19T02:15:06.585Z,7.10
2022-12-19T02:17:57.640Z,5.10
2022-12-19T02:21:11.764Z,5.10
2022-12-19T02:24:35.568Z,5.10
2022-12-19T02:27:56.371Z,5.10
2022-12-19T02:30:35.483Z,5.10
2022-12-19T02:33:36.872Z,5.10
2022-12-19T02:36:29.719Z,6.30
2022-12-19T02:39:10.568Z,5.20
2022-12-19T02:41:57.131Z,5.20
2022-12-19T02:44:30.224Z,5.20
2022-12-19T02:47:02.224Z,5.30
2022-12-19T02:49:32.855Z,5.30
2022-12-19T02:52:20.727Z,6.30
2022-12-19T02:54:59.928Z,5.40
2022-12-19T02:58:22.607Z,5.40
2022-12-19T03:01:27.819Z,5.50
2022-12-19T03:04:15.652Z,5.50
2022-12-19T03:07:13.203Z,5.60
2022-12-19T03:10:13.910Z,5.60
2022-12-19T03:13:01.142Z,5.70
2022-12-19T03:15:33.929Z,5.70
2022-12-19T03:18:02.523Z,5.80
2022-12-19T03:20:44.204Z,6.00
2022-12-19T03:23:13.125Z,7.30
2022-12-19T03:25:45.912Z,7.20
2022-12-19T03:28:28.285Z,7.30
2022-12-19T03:30:59.765Z,6.00
2022-12-19T03:33:32.766Z,6.10
2022-12-19T03:36:07.663Z,6.10
2022-12-19T03:38:39.359Z,6.30
2022-12-19T03:41:13.831Z,6.30
2022-12-19T03:43:46.247Z,6.30
2022-12-19T03:46:26.513Z,6.40
2022-12-19T03:48:55.706Z,6.50
2022-12-19T03:51:37.671Z,6.60
2022-12-19T03:54:13.838Z,7.90
2022-12-19T03:57:06.277Z,6.70
2022-12-19T04:00:02.339Z,8.60
2022-12-19T04:02:45.105Z,6.90
2022-12-19T04:05:25.205Z,7.00
2022-12-19T04:07:58.411Z,7.10
2022-12-19T04:10:28.342Z,7.10
2022-12-19T04:13:15.755Z,8.90
2022-12-19T04:16:07.639Z,7.30
2022-12-19T04:18:37.293Z,7.30
2022-12-19T04:21:27.344Z,9.30
2022-12-19T04:24:06.857Z,8.90
2022-12-19T04:26:36.978Z,9.00
2022-12-19T04:29:07.136Z,7.60
2022-12-19T04:31:36.560Z,7.70
2022-12-19T04:34:03.798Z,7.80
2022-12-19T04:36:30.876Z,8.70
2022-12-19T04:38:58.301Z,7.90
2022-12-19T04:41:25.250Z,8.80
2022-12-19T04:43:52.262Z,8.00
2022-12-19T04:46:21.714Z,8.30
2022-12-19T04:48:51.783Z,9.50
2022-12-19T04:51:21.288Z,8.10
2022-12-19T04:53:51.276Z,8.20
2022-12-19T04:56:21.474Z,8.20
2022-12-19T04:58:48.569Z,8.30
2022-12-19T05:01:15.577Z,8.30
2022-12-19T05:03:42.710Z,10.10
2022-12-19T05:06:13.354Z,10.70
2022-12-19T05:08:43.279Z,10.10
2022-12-19T05:11:19.221Z,6.80
2022-12-19T05:13:49.871Z,8.50
2022-12-19T05:16:17.527Z,8.50
2022-12-19T05:18:45.102Z,8.60
2022-12-19T05:21:12.729Z,8.70
2022-12-19T05:23:39.768Z,8.70
2022-12-19T05:26:07.585Z,8.70
2022-12-19T05:28:34.861Z,9.60
2022-12-19T05:31:13.265Z,8.80
2022-12-19T05:33:42.285Z,8.90
2022-12-19T05:36:11.245Z,9.00
2022-12-19T05:38:38.590Z,8.90
2022-12-19T05:41:20.048Z,10.40
2022-12-19T05:43:53.128Z,9.00
2022-12-19T05:46:22.917Z,9.00
2022-12-19T05:48:52.147Z,9.10
2022-12-19T05:51:19.803Z,9.10
2022-12-19T05:53:47.062Z,9.10
2022-12-19T05:56:22.770Z,9.20
2022-12-19T05:58:52.201Z,9.20
2022-12-19T06:01:26.297Z,10.40
2022-12-19T06:03:55.406Z,9.20
2022-12-19T06:06:26.291Z,11.50
2022-12-19T06:08:59.403Z,9.40
2022-12-19T06:11:27.943Z,9.40
2022-12-19T06:13:54.918Z,11.40
2022-12-19T06:16:23.493Z,9.40
2022-12-19T06:18:51.411Z,9.40
2022-12-19T06:21:23.356Z,11.00
2022-12-19T06:23:50.679Z,9.40
2022-12-19T06:26:21.429Z,10.70
2022-12-19T06:28:53.671Z,11.50
2022-12-19T06:31:23.219Z,9.60
2022-12-19T06:33:50.663Z,11.70
2022-12-19T06:36:23.847Z,10.50
2022-12-19T06:38:52.187Z,11.30
2022-12-19T06:41:40.954Z,9.70
2022-12-19T06:44:12.575Z,9.60
2022-12-19T06:46:40.846Z,11.70
2022-12-19T06:49:09.024Z,11.00
2022-12-19T06:51:36.681Z,9.70
2022-12-19T06:54:04.641Z,11.80
2022-12-19T06:56:37.627Z,9.70
2022-12-19T06:59:12.614Z,10.80
2022-12-19T07:01:58.116Z,10.00
2022-12-19T07:04:57.931Z,9.70
2022-12-19T07:07:24.976Z,9.70
2022-12-19T07:09:54.902Z,9.80
2022-12-19T07:12:22.822Z,11.30
2022-12-19T07:14:53.289Z,11.70
2022-12-19T07:17:24.434Z,9.80
2022-12-19T07:19:54.428Z,9.70
2022-12-19T07:22:22.294Z,9.80
2022-12-19T07:24:52.963Z,9.80
2022-12-19T07:27:20.481Z,9.80
2022-12-19T07:29:50.866Z,9.80
2022-12-19T07:32:18.180Z,9.80
2022-12-19T07:34:45.189Z,11.20
2022-12-19T07:37:12.387Z,10.70
2022-12-19T07:39:39.358Z,9.90
2022-12-19T07:42:06.509Z,11.00
2022-12-19T07:44:39.938Z,9.90
2022-12-19T07:47:10.838Z,9.90
2022-12-19T07:49:37.889Z,9.90
2022-12-19T07:52:04.798Z,11.40
2022-12-19T07:54:32.082Z,9.90
2022-12-19T07:56:59.053Z,9.90
2022-12-19T07:59:31.232Z,10.00
2022-12-19T08:02:00.682Z,10.00
2022-12-19T08:04:27.697Z,10.10
2022-12-19T08:06:54.678Z,10.00
2022-12-19T08:09:21.688Z,10.00
2022-12-19T08:11:55.887Z,10.10
2022-12-19T08:14:23.097Z,11.10
2022-12-19T08:17:19.221Z,10.10
2022-12-19T08:19:37.021Z,10.10
2022-12-19T08:22:04.032Z,10.20
2022-12-19T08:24:31.100Z,8.80
2022-12-19T08:26:58.333Z,10.20
2022-12-19T08:29:25.514Z,11.30
2022-12-19T08:31:52.509Z,12.30
2022-12-19T08:34:22.957Z,11.20
2022-12-19T08:36:50.119Z,10.40
2022-12-19T08:39:17.268Z,11.40
2022-12-19T08:41:44.865Z,10.30
2022-12-19T08:44:13.285Z,10.30
2022-12-19T08:46:43.633Z,10.40
2022-12-19T08:49:13.785Z,11.70
2022-12-19T08:51:40.835Z,10.40
2022-12-19T08:54:10.838Z,10.50
2022-12-19T08:56:46.175Z,11.60
2022-12-19T08:59:22.193Z,10.50
2022-12-19T09:02:00.151Z,12.00
2022-12-19T09:06:02.142Z,12.20
2022-12-19T09:07:16.202Z,10.70
2022-12-19T09:09:44.659Z,11.80
2022-12-19T09:12:14.329Z,12.30
2022-12-19T09:14:41.433Z,10.80
2022-12-19T09:17:11.247Z,10.80
2022-12-19T09:19:38.431Z,10.90
2022-12-19T09:22:06.903Z,10.90
2022-12-19T09:24:34.219Z,10.90
2022-12-19T09:27:01.192Z,10.90
2022-12-19T09:29:32.199Z,12.00
2022-12-19T09:32:02.244Z,11.00
2022-12-19T09:34:36.188Z,11.50
2022-12-19T09:37:16.345Z,11.20
2022-12-19T09:39:47.743Z,12.40
2022-12-19T09:42:54.673Z,12.00
2022-12-19T09:45:55.859Z,11.20
2022-12-19T09:48:25.123Z,11.20
2022-12-19T09:51:24.402Z,11.20
2022-12-19T09:54:08.467Z,11.20
2022-12-19T09:56:46.252Z,11.30
2022-12-19T09:59:49.652Z,11.40
2022-12-19T10:02:54.407Z,11.50
2022-12-19T10:07:11.196Z,11.50
2022-12-19T10:10:18.238Z,11.60
2022-12-19T10:12:45.483Z,11.60
2022-12-19T10:15:38.080Z,11.60
2022-12-19T10:18:36.932Z,11.70
2022-12-19T10:21:36.954Z,11.60
2022-12-19T10:24:39.418Z,13.10
2022-12-19T10:28:00.009Z,11.70
2022-12-19T10:30:33.129Z,11.70
2022-12-19T10:33:24.047Z,11.80
2022-12-19T10:36:02.579Z,11.70
2022-12-19T10:38:51.640Z,11.70
2022-12-19T10:41:30.484Z,12.20
2022-12-19T10:44:10.435Z,13.00
2022-12-19T10:46:50.409Z,11.70
2022-12-19T10:49:27.940Z,13.00
2022-12-19T10:52:00.379Z,11.70
2022-12-19T10:54:39.661Z,12.80
2022-12-19T10:57:29.366Z,12.30
2022-12-19T11:00:16.254Z,11.70
2022-12-19T11:02:51.602Z,11.60
2022-12-19T11:05:23.889Z,13.10
2022-12-19T11:08:09.304Z,11.60
2022-12-19T11:12:26.336Z,11.60
2022-12-19T11:19:25.700Z,11.50
2022-12-19T11:22:18.779Z,13.20
2022-12-19T11:29:37.221Z,11.90
2022-12-19T11:29:38.719Z,11.80
2022-12-19T11:30:43.750Z,11.50
2022-12-19T11:30:46.941Z,11.50
2022-12-19T11:34:23.417Z,11.60
2022-12-19T11:37:27.443Z,11.70
2022-12-19T11:40:17.417Z,11.70
2022-12-19T11:46:29.481Z,11.80
2022-12-19T11:49:28.845Z,11.90
2022-12-19T11:53:02.931Z,12.00
2022-12-19T11:55:27.081Z,12.00
2022-12-19T11:57:55.187Z,12.10
2022-12-19T12:00:24.596Z,12.20
2022-12-19T12:03:36.194Z,12.20
2022-12-19T12:06:33.361Z,12.30
2022-12-19T12:10:27.933Z,12.40
2022-12-19T12:21:03.693Z,12.50
2022-12-19T12:24:10.204Z,12.50
2022-12-19T12:31:00.244Z,12.60
2022-12-19T12:31:14.066Z,12.60
2022-12-19T12:31:45.127Z,12.70
2022-12-19T12:32:02.265Z,12.60
2022-12-19T12:37:03.438Z,12.80
2022-12-19T12:38:24.021Z,12.90
2022-12-19T12:41:09.973Z,13.00
2022-12-19T12:44:07.888Z,12.90
2022-12-19T12:47:14.674Z,13.00
2022-12-19T12:50:00.916Z,13.00
2022-12-19T12:52:38.274Z,13.10
2022-12-19T12:55:19.718Z,13.20
2022-12-19T12:57:49.689Z,13.20
2022-12-19T13:00:23.945Z,15.10
2022-12-19T13:03:18.130Z,14.40
2022-12-19T13:06:07.589Z,13.30
2022-12-19T13:08:40.908Z,13.30
2022-12-19T13:12:29.490Z,13.30
2022-12-19T13:15:34.333Z,13.40
2022-12-19T13:18:30.691Z,13.40
2022-12-19T13:20:59.832Z,13.40
2022-12-19T13:23:29.686Z,13.40
2022-12-19T13:25:57.043Z,13.40
2022-12-19T13:28:23.894Z,14.00
2022-12-19T13:31:18.450Z,13.40
2022-12-19T13:33:54.702Z,13.40
2022-12-19T13:40:02.080Z,13.50
2022-12-19T13:40:08.709Z,13.40
2022-12-19T13:43:07.454Z,13.30
2022-12-19T13:45:50.144Z,13.50
2022-12-19T13:48:27.949Z,13.30
2022-12-19T13:50:57.620Z,13.30
2022-12-19T13:53:28.924Z,13.30
2022-12-19T13:56:09.819Z,14.10
2022-12-19T13:59:01.402Z,13.20
2022-12-19T14:01:33.559Z,13.10
2022-12-19T14:04:08.770Z,14.50
2022-12-19T14:06:46.052Z,13.30
2022-12-19T14:11:35.105Z,13.10
2022-12-19T14:13:58.818Z,13.00
2022-12-19T14:15:52.416Z,13.00
2022-12-19T14:18:45.297Z,12.90
2022-12-19T14:22:04.563Z,12.90
2022-12-19T14:24:24.999Z,12.90
2022-12-19T14:28:17.827Z,12.90
2022-12-19T14:30:29.035Z,12.90
2022-12-19T14:33:45.853Z,12.80
2022-12-19T14:36:12.035Z,12.90
2022-12-19T14:39:19.430Z,12.90
2022-12-19T14:41:45.941Z,12.80
2022-12-19T14:52:08.329Z,12.90
2022-12-19T14:52:35.612Z,13.50
2022-12-19T14:54:09.147Z,12.90
2022-12-19T14:54:29.754Z,12.90
2022-12-19T14:56:54.479Z,12.90
2022-12-19T14:59:05.784Z,12.90
2022-12-19T15:01:36.650Z,12.80
2022-12-19T15:04:52.200Z,12.90
2022-12-19T15:07:29.548Z,12.80
2022-12-19T15:11:07.400Z,12.80
2022-12-19T15:14:53.787Z,12.80
2022-12-19T15:16:31.674Z,12.80
2022-12-19T15:19:01.196Z,12.80
2022-12-19T15:21:30.479Z,12.70
2022-12-19T15:23:57.787Z,12.70
2022-12-19T15:26:34.022Z,13.90
2022-12-19T15:29:01.912Z,14.30
2022-12-19T15:31:39.374Z,12.80
2022-12-19T15:34:37.968Z,12.70
2022-12-19T15:37:11.494Z,12.60
2022-12-19T15:39:39.075Z,12.60
2022-12-19T15:42:17.571Z,13.80
2022-12-19T15:44:47.119Z,12.60
2022-12-19T15:47:25.832Z,12.60
2022-12-19T15:49:53.559Z,12.80
2022-12-19T15:52:25.391Z,12.60
2022-12-19T15:54:52.519Z,13.40
2022-12-19T15:57:44.817Z,12.70
2022-12-19T16:00:34.154Z,12.70
2022-12-19T16:05:52.534Z,12.70
2022-12-19T16:08:28.148Z,12.70
2022-12-19T16:11:01.661Z,12.70
2022-12-19T16:13:36.334Z,12.70
2022-12-19T16:16:11.162Z,13.90
2022-12-19T16:18:42.564Z,12.70
2022-12-19T16:21:31.667Z,12.70
2022-12-19T16:24:01.378Z,12.70
2022-12-19T16:26:35.602Z,12.60
2022-12-19T16:29:02.960Z,12.70
2022-12-19T16:31:33.707Z,12.70
2022-12-19T16:34:02.726Z,14.20
2022-12-19T16:36:29.666Z,12.70
2022-12-19T16:38:56.618Z,12.70
2022-12-19T16:41:25.586Z,12.70
2022-12-19T16:43:53.348Z,13.70
2022-12-19T16:46:23.863Z,13.70
2022-12-19T16:48:51.096Z,12.70
2022-12-19T16:51:25.132Z,13.10
2022-12-19T16:53:57.548Z,13.90
2022-12-19T16:56:35.992Z,13.40
2022-12-19T16:59:12.086Z,13.00
2022-12-19T17:01:39.327Z,12.60
2022-12-19T17:04:12.109Z,12.50
2022-12-19T17:06:39.109Z,12.50
2022-12-19T17:09:06.207Z,12.50
2022-12-19T17:11:33.540Z,12.40
2022-12-19T17:14:16.334Z,12.40
2022-12-19T17:16:44.221Z,12.40
2022-12-19T17:19:30.268Z,12.50
2022-12-19T17:21:57.267Z,12.30
2022-12-19T17:24:24.226Z,12.40
2022-12-19T17:26:53.526Z,12.50
2022-12-19T17:29:23.289Z,13.70
2022-12-19T17:31:50.530Z,12.50
2022-12-19T17:34:34.310Z,13.90
2022-12-19T17:37:05.074Z,12.50
2022-12-19T17:39:34.745Z,12.60
2022-12-19T17:42:16.078Z,12.70
2022-12-19T17:44:45.442Z,12.60
2022-12-19T17:47:16.415Z,12.70
2022-12-19T17:49:48.863Z,13.40
2022-12-19T17:52:21.323Z,12.90
2022-12-19T17:54:52.802Z,13.70
2022-12-19T17:57:20.675Z,13.60
2022-12-19T17:59:50.465Z,13.40
2022-12-19T18:02:26.484Z,12.60
2022-12-19T18:04:54.076Z,12.60
2022-12-19T18:07:21.206Z,12.60
2022-12-19T18:09:51.256Z,12.50
2022-12-19T18:12:19.355Z,12.50
2022-12-19T18:14:49.363Z,12.40
2022-12-19T18:17:25.795Z,12.40
2022-12-19T18:19:53.293Z,12.40
2022-12-19T18:22:23.798Z,12.40
2022-12-19T18:24:51.513Z,12.40
2022-12-19T18:27:21.418Z,12.40
2022-12-19T18:29:49.485Z,12.30
2022-12-19T18:32:20.168Z,12.50
2022-12-19T18:34:47.873Z,12.70
2022-12-19T18:37:15.985Z,13.50
2022-12-19T18:39:43.125Z,12.60
2022-12-19T18:42:21.589Z,12.60
2022-12-19T18:44:49.189Z,12.60
2022-12-19T18:47:25.498Z,12.70
2022-12-19T18:49:58.951Z,12.70
2022-12-19T18:52:26.265Z,12.70
2022-12-19T18:54:53.548Z,12.70
2022-12-19T18:57:20.575Z,12.70
2022-12-19T18:59:50.355Z,12.70
2022-12-19T19:02:27.851Z,12.70
2022-12-19T19:04:56.932Z,12.70
2022-12-19T19:07:24.089Z,13.10
2022-12-19T19:09:51.082Z,13.50
2022-12-19T19:12:37.227Z,12.80
2022-12-19T19:15:05.878Z,12.80
2022-12-19T19:17:33.027Z,12.70
2022-12-19T19:20:01.357Z,12.80
2022-12-19T19:22:28.392Z,12.90
2022-12-19T19:24:55.618Z,12.80
2022-12-19T19:27:22.814Z,13.00
2022-12-19T19:29:50.985Z,12.80
2022-12-19T19:32:19.114Z,12.90
2022-12-19T19:34:48.710Z,13.60
2022-12-19T19:37:16.586Z,14.10
2022-12-19T19:39:43.553Z,12.90
2022-12-19T19:42:10.684Z,13.60
2022-12-19T19:44:39.613Z,14.80
2022-12-19T19:47:06.564Z,13.00
2022-12-19T19:49:33.605Z,13.00
2022-12-19T19:52:03.168Z,12.90
2022-12-19T19:54:31.997Z,12.90
2022-12-19T19:56:58.915Z,12.90
2022-12-19T19:59:30.630Z,13.20
2022-12-19T20:01:57.875Z,13.60
2022-12-19T20:04:25.181Z,12.80
2022-12-19T20:06:52.165Z,12.80
2022-12-19T20:09:21.549Z,12.80
2022-12-19T20:11:51.532Z,12.80
2022-12-19T20:14:20.871Z,12.80
2022-12-19T20:16:48.927Z,12.50
2022-12-19T20:19:16.118Z,12.60
2022-12-19T20:21:43.485Z,14.20
2022-12-19T20:24:12.757Z,12.70
2022-12-19T20:26:39.662Z,12.60
2022-12-19T20:29:06.844Z,13.30
2022-12-19T20:31:35.838Z,13.20
2022-12-19T20:34:02.878Z,12.90
2022-12-19T20:36:29.841Z,12.60
2022-12-19T20:38:56.986Z,12.40
2022-12-19T20:41:24.095Z,12.40
2022-12-19T20:43:52.900Z,12.80
2022-12-19T20:46:23.997Z,12.30
2022-12-19T20:48:51.618Z,13.30
2022-12-19T20:51:22.384Z,12.20
2022-12-19T20:53:53.776Z,12.20
2022-12-19T20:56:23.172Z,12.20
2022-12-19T20:58:50.401Z,12.70
2022-12-19T21:01:22.442Z,12.10
2022-12-19T21:03:53.484Z,12.10
2022-12-19T21:06:25.443Z,12.20
2022-12-19T21:08:53.284Z,12.10
2022-12-19T21:11:20.193Z,12.10
2022-12-19T21:13:47.942Z,12.10
2022-12-19T21:16:20.276Z,12.20
2022-12-19T21:18:49.989Z,14.00
2022-12-19T21:21:26.180Z,12.20
2022-12-19T21:23:57.145Z,13.30
2022-12-19T21:26:25.972Z,12.20
2022-12-19T21:28:54.284Z,12.20
2022-12-19T21:31:25.875Z,12.30
2022-12-19T21:34:02.324Z,12.30
2022-12-19T21:36:33.620Z,12.30
2022-12-19T21:39:01.886Z,12.10
2022-12-19T21:41:29.831Z,12.30
2022-12-19T21:43:57.910Z,12.30
2022-12-19T21:46:29.826Z,12.60
2022-12-19T21:48:57.979Z,12.30
2022-12-19T21:51:29.425Z,12.30
2022-12-19T21:54:01.509Z,12.30
2022-12-19T21:56:41.758Z,12.30
2022-12-19T21:59:15.213Z,12.30
2022-12-19T22:01:44.933Z,13.50
2022-12-19T22:04:22.302Z,12.30
2022-12-19T22:06:51.315Z,12.30
2022-12-19T22:09:22.581Z,14.10
2022-12-19T22:11:49.922Z,14.10
2022-12-19T22:14:19.579Z,12.30
2022-12-19T22:16:47.115Z,12.80
2022-12-19T22:19:21.935Z,12.60
2022-12-19T22:21:49.882Z,12.30
2022-12-19T22:24:18.943Z,12.40
2022-12-19T22:26:48.541Z,12.20
2022-12-19T22:29:21.659Z,12.40
2022-12-19T22:31:50.256Z,12.50
2022-12-19T22:34:21.786Z,12.50
2022-12-19T22:36:49.068Z,12.50
2022-12-19T22:39:19.828Z,12.50
2022-12-19T22:41:50.137Z,12.60
2022-12-19T22:44:24.364Z,12.70
2022-12-19T22:46:52.086Z,11.60
2022-12-19T22:49:21.772Z,12.70
2022-12-19T22:51:49.305Z,12.70
2022-12-19T22:54:16.404Z,12.70
2022-12-19T22:56:43.441Z,12.70
2022-12-19T22:59:12.497Z,12.70
2022-12-19T23:01:43.340Z,12.70
2022-12-19T23:04:14.555Z,12.60
2022-12-19T23:06:42.085Z,12.60
2022-12-19T23:09:15.354Z,12.90
2022-12-19T23:11:45.238Z,12.70
2022-12-19T23:14:16.379Z,12.60
2022-12-19T23:16:45.029Z,12.60
2022-12-19T23:19:14.592Z,12.70
2022-12-19T23:21:42.046Z,14.20
2022-12-19T23:24:09.231Z,12.60
2022-12-19T23:26:37.856Z,12.60
2022-12-19T23:29:12.130Z,12.60
2022-12-19T23:31:43.078Z,12.60
2022-12-19T23:34:10.790Z,12.60
2022-12-19T23:39:25.602Z,12.60
2022-12-19T23:41:52.540Z,12.60
2022-12-19T23:44:22.033Z,12.60
2022-12-19T23:46:49.052Z,12.60
2022-12-19T23:49:16.075Z,12.60
2022-12-19T23:51:43.105Z,12.60
2022-12-19T23:54:10.123Z,12.60
2022-12-19T23:56:37.433Z,13.40
2022-12-19T23:59:05.598Z,11.60
